Time;durP1;ratioP1;P1;durP2;ratioP2;P2;SDS_P1;SDS_P2;PMS_P1;PMS_P2;Temp;Humidity;BMP_temperature;BMP_pressure;BME280_temperature;BME280_humidity;BME280_pressure;Samples;Min_cycle;Max_cycle;Signal;HPM_P1;HPM_P2
2022/03/14 00:00:42;;;;;;;;;;;20.00;30.00;;;;;;5063640;28;19970;-45
2022/03/14 00:03:10;;;;;;;;;;;20.00;30.00;;;;;;5055755;28;20385;-46
2022/03/14 00:05:37;;;;;;;;;;;20.00;30.00;;;;;;5057052;28;19921;-48
2022/03/14 00:08:04;;;;;;;;;;;20.00;30.00;;;;;;5057671;28;20011;-44
2022/03/14 00:10:32;;;;;;;;;;;20.00;30.00;;;;;;5058866;28;20015;-44
2022/03/14 00:13:00;;;;;;;;;;;19.90;29.90;;;;;;5056452;28;20349;-44
2022/03/14 00:15:29;;;;;;;;;;;20.00;30.00;;;;;;5039013;28;19925;-44
2022/03/14 00:18:01;;;;;;;;;;;20.00;30.00;;;;;;5038852;28;20019;-51
2022/03/14 00:20:28;;;;;;;;;;;20.00;30.00;;;;;;5040272;28;20024;-45
2022/03/14 00:22:58;;;;;;;;;;;20.00;30.00;;;;;;5043227;28;19978;-43
2022/03/14 00:25:26;;;;;;;;;;;20.00;30.00;;;;;;5039656;28;20494;-44
2022/03/14 00:27:54;;;;;;;;;;;20.00;30.00;;;;;;5039556;28;20243;-44
2022/03/14 00:30:21;;;;;;;;;;;20.00;30.00;;;;;;5060218;28;19920;-43
2022/03/14 00:32:48;;;;;;;;;;;19.90;29.90;;;;;;5059642;28;19967;-44
2022/03/14 00:35:15;;;;;;;;;;;19.90;29.90;;;;;;5057993;28;19924;-45
2022/03/14 00:37:42;;;;;;;;;;;19.90;29.90;;;;;;5040086;28;19936;-44
2022/03/14 00:40:10;;;;;;;;;;;20.00;30.00;;;;;;5038504;28;19927;-43
2022/03/14 00:42:38;;;;;;;;;;;19.90;29.90;;;;;;5040582;28;19946;-44
2022/03/14 00:45:07;;;;;;;;;;;20.00;30.00;;;;;;5055689;28;20480;-44
2022/03/14 00:47:36;;;;;;;;;;;19.90;29.90;;;;;;5039378;28;20340;-46
2022/03/14 00:50:02;;;;;;;;;;;20.00;30.00;;;;;;5036795;28;19932;-46
2022/03/14 00:52:29;;;;;;;;;;;19.90;29.90;;;;;;5038653;28;20441;-43
2022/03/14 00:54:56;;;;;;;;;;;19.90;29.90;;;;;;5040108;28;20380;-44
2022/03/14 00:57:22;;;;;;;;;;;19.90;29.90;;;;;;5059400;28;19960;-48
2022/03/14 00:59:49;;;;;;;;;;;19.90;29.90;;;;;;5038222;28;19994;-48
2022/03/14 01:02:17;;;;;;;;;;;19.90;29.90;;;;;;5039829;28;19960;-44
2022/03/14 01:04:46;;;;;;;;;;;20.00;29.90;;;;;;5041086;28;20364;-46
2022/03/14 01:07:16;;;;;;;;;;;19.90;29.80;;;;;;5036744;28;19920;-47
2022/03/14 01:09:43;;;;;;;;;;;19.90;29.80;;;;;;5040795;28;19966;-45
2022/03/14 01:12:09;;;;;;;;;;;19.90;29.90;;;;;;5039264;28;19924;-44
2022/03/14 01:14:36;;;;;;;;;;;20.00;29.90;;;;;;5038977;28;20412;-43
2022/03/14 01:17:04;;;;;;;;;;;19.90;29.80;;;;;;5037727;28;19928;-47
2022/03/14 01:19:32;;;;;;;;;;;19.90;29.90;;;;;;5038608;28;19924;-46
2022/03/14 01:21:59;;;;;;;;;;;19.90;29.90;;;;;;5040221;28;19920;-44
2022/03/14 01:24:25;;;;;;;;;;;19.90;29.80;;;;;;5037407;28;19931;-42
2022/03/14 01:26:52;;;;;;;;;;;19.90;29.80;;;;;;5039141;28;19956;-43
2022/03/14 01:29:22;;;;;;;;;;;19.90;29.80;;;;;;5038142;28;20377;-47
2022/03/14 01:31:49;;;;;;;;;;;19.90;29.80;;;;;;5037352;28;19925;-50
2022/03/14 01:34:15;;;;;;;;;;;19.90;29.80;;;;;;5057070;28;19924;-46
2022/03/14 01:36:44;;;;;;;;;;;19.90;29.80;;;;;;5038941;28;19920;-45
2022/03/14 01:39:10;;;;;;;;;;;19.90;29.80;;;;;;5036978;28;19921;-46
2022/03/14 01:41:37;;;;;;;;;;;19.90;29.80;;;;;;5038088;28;20365;-45
2022/03/14 01:44:04;;;;;;;;;;;19.90;29.80;;;;;;5038466;28;19924;-46
2022/03/14 01:46:32;;;;;;;;;;;19.90;29.80;;;;;;5042261;28;19920;-45
2022/03/14 01:49:00;;;;;;;;;;;19.90;29.80;;;;;;5040626;28;20262;-43
2022/03/14 01:51:26;;;;;;;;;;;19.90;29.80;;;;;;5060573;28;20281;-43
2022/03/14 01:53:55;;;;;;;;;;;19.90;29.80;;;;;;5042939;28;19924;-44
2022/03/14 01:56:22;;;;;;;;;;;19.90;29.80;;;;;;5041866;28;20290;-43
2022/03/14 01:58:48;;;;;;;;;;;19.90;29.80;;;;;;5040857;28;19939;-45
2022/03/14 02:01:15;;;;;;;;;;;19.90;29.80;;;;;;5045084;28;19921;-45
2022/03/14 02:03:42;;;;;;;;;;;19.90;29.80;;;;;;5043613;28;19920;-46
2022/03/14 02:06:10;;;;;;;;;;;19.90;29.70;;;;;;5058364;28;20258;-46
2022/03/14 02:08:36;;;;;;;;;;;19.90;29.70;;;;;;5042032;28;19932;-43
2022/03/14 02:11:05;;;;;;;;;;;19.90;29.70;;;;;;5060088;28;20018;-45
2022/03/14 02:13:32;;;;;;;;;;;19.90;29.70;;;;;;5040580;28;19951;-45
2022/03/14 02:15:58;;;;;;;;;;;19.90;29.70;;;;;;5041668;28;19942;-43
2022/03/14 02:18:25;;;;;;;;;;;19.90;29.70;;;;;;5060851;28;20031;-44
2022/03/14 02:20:53;;;;;;;;;;;19.90;29.70;;;;;;5041691;28;19921;-47
2022/03/14 02:23:20;;;;;;;;;;;19.90;29.70;;;;;;5042571;28;20237;-45
2022/03/14 02:25:47;;;;;;;;;;;19.90;29.70;;;;;;5045333;28;20358;-46
2022/03/14 02:28:15;;;;;;;;;;;19.90;29.70;;;;;;5043029;28;19920;-44
2022/03/14 02:30:41;;;;;;;;;;;19.90;29.70;;;;;;5042636;28;19935;-44
2022/03/14 02:33:08;;;;;;;;;;;19.90;29.70;;;;;;5062082;28;19924;-43
2022/03/14 02:35:39;;;;;;;;;;;19.90;29.70;;;;;;5042904;28;20350;-45
2022/03/14 02:38:14;;;;;;;;;;;19.90;29.70;;;;;;5043190;28;19927;-45
2022/03/14 02:40:41;;;;;;;;;;;19.90;29.70;;;;;;5038985;28;20039;-45
2022/03/14 02:43:10;;;;;;;;;;;19.90;29.70;;;;;;5023801;28;23383;-44
2022/03/14 02:45:37;;;;;;;;;;;19.90;29.70;;;;;;5041568;28;19924;-48
2022/03/14 02:48:04;;;;;;;;;;;19.90;29.70;;;;;;5038984;28;19990;-43
2022/03/14 02:50:34;;;;;;;;;;;19.90;29.70;;;;;;5057473;28;19921;-45
2022/03/14 02:53:01;;;;;;;;;;;19.90;29.70;;;;;;5042035;28;19956;-44
2022/03/14 02:55:29;;;;;;;;;;;19.90;29.70;;;;;;5040505;28;19927;-43
2022/03/14 02:57:55;;;;;;;;;;;19.90;29.70;;;;;;5038831;28;19920;-44
2022/03/14 03:00:22;;;;;;;;;;;19.90;29.70;;;;;;5039694;28;20374;-43
2022/03/14 03:02:49;;;;;;;;;;;19.90;29.70;;;;;;5039560;28;20055;-44
2022/03/14 03:05:16;;;;;;;;;;;19.90;29.70;;;;;;5040742;28;19925;-44
2022/03/14 03:07:43;;;;;;;;;;;19.90;29.70;;;;;;5060697;28;19920;-45
2022/03/14 03:10:11;;;;;;;;;;;19.90;29.70;;;;;;5040519;28;20143;-44
2022/03/14 03:12:40;;;;;;;;;;;19.90;29.70;;;;;;5040414;28;19944;-46
2022/03/14 03:15:07;;;;;;;;;;;19.90;29.70;;;;;;5041065;28;20020;-45
2022/03/14 03:17:36;;;;;;;;;;;19.90;29.70;;;;;;5039479;28;19921;-45
2022/03/14 03:20:03;;;;;;;;;;;19.90;29.70;;;;;;5042009;28;19971;-48
2022/03/14 03:22:30;;;;;;;;;;;19.90;29.70;;;;;;5058027;28;20374;-45
2022/03/14 03:24:56;;;;;;;;;;;19.90;29.60;;;;;;5041900;28;19960;-47
2022/03/14 03:27:23;;;;;;;;;;;19.90;29.60;;;;;;5040051;28;19973;-45
2022/03/14 03:29:51;;;;;;;;;;;19.90;29.60;;;;;;5051547;28;19931;-46
2022/03/14 03:32:18;;;;;;;;;;;19.90;29.60;;;;;;5040829;28;19955;-45
2022/03/14 03:34:45;;;;;;;;;;;19.80;29.60;;;;;;5041114;28;20180;-45
2022/03/14 03:37:12;;;;;;;;;;;19.90;29.60;;;;;;5040478;28;19935;-45
2022/03/14 03:39:39;;;;;;;;;;;19.90;29.60;;;;;;5039451;28;19924;-46
2022/03/14 03:42:06;;;;;;;;;;;19.80;29.60;;;;;;5040415;28;19928;-43
2022/03/14 03:44:33;;;;;;;;;;;19.90;29.60;;;;;;5039363;28;19921;-43
2022/03/14 03:47:01;;;;;;;;;;;19.80;29.60;;;;;;5058932;28;20393;-48
2022/03/14 03:49:28;;;;;;;;;;;19.90;29.60;;;;;;5059332;28;20307;-45
2022/03/14 03:51:54;;;;;;;;;;;19.80;29.60;;;;;;5038890;28;20277;-44
2022/03/14 03:54:21;;;;;;;;;;;19.80;29.60;;;;;;5040643;28;20011;-43
2022/03/14 03:56:48;;;;;;;;;;;19.80;29.60;;;;;;5058199;28;19974;-46
2022/03/14 03:59:15;;;;;;;;;;;19.90;29.60;;;;;;5058279;28;19927;-43
2022/03/14 04:01:43;;;;;;;;;;;19.80;29.50;;;;;;5041470;28;19932;-45
2022/03/14 04:04:11;;;;;;;;;;;19.80;29.50;;;;;;5038992;28;20273;-46
2022/03/14 04:06:41;;;;;;;;;;;19.80;29.60;;;;;;5041897;28;19931;-44
2022/03/14 04:09:10;;;;;;;;;;;19.90;29.60;;;;;;5037763;28;20482;-45
2022/03/14 04:11:41;;;;;;;;;;;19.90;29.60;;;;;;5057674;28;19927;-43
2022/03/14 04:14:10;;;;;;;;;;;19.80;29.50;;;;;;5041617;28;20418;-44
2022/03/14 04:16:39;;;;;;;;;;;19.80;29.50;;;;;;5038686;28;19960;-48
2022/03/14 04:19:06;;;;;;;;;;;19.80;29.50;;;;;;5054777;28;19970;-47
2022/03/14 04:21:36;;;;;;;;;;;19.80;29.50;;;;;;5038507;28;20007;-45
2022/03/14 04:24:05;;;;;;;;;;;19.80;29.50;;;;;;5040116;28;19950;-43
2022/03/14 04:26:33;;;;;;;;;;;19.80;29.50;;;;;;5039683;28;19921;-47
2022/03/14 04:29:02;;;;;;;;;;;19.90;29.50;;;;;;5038443;28;19925;-45
2022/03/14 04:31:29;;;;;;;;;;;19.80;29.50;;;;;;5059067;28;19928;-47
2022/03/14 04:33:57;;;;;;;;;;;19.80;29.50;;;;;;5037503;28;19948;-43
2022/03/14 04:36:23;;;;;;;;;;;19.80;29.50;;;;;;5037136;28;19933;-43
2022/03/14 04:38:51;;;;;;;;;;;19.80;29.50;;;;;;5039190;28;19921;-43
2022/03/14 04:41:18;;;;;;;;;;;19.80;29.50;;;;;;5034923;28;19927;-46
2022/03/14 04:43:45;;;;;;;;;;;19.80;29.40;;;;;;5054680;28;19960;-43
2022/03/14 04:46:12;;;;;;;;;;;19.80;29.40;;;;;;5041062;28;20435;-43
2022/03/14 04:48:38;;;;;;;;;;;19.80;29.40;;;;;;5041227;28;19927;-43
2022/03/14 04:51:05;;;;;;;;;;;19.80;29.40;;;;;;5039551;28;20358;-44
2022/03/14 04:53:32;;;;;;;;;;;19.80;29.40;;;;;;5057378;28;19921;-43
2022/03/14 04:56:00;;;;;;;;;;;19.80;29.40;;;;;;5036371;28;19920;-43
2022/03/14 04:58:26;;;;;;;;;;;19.80;29.40;;;;;;5053752;28;19927;-43
2022/03/14 05:00:54;;;;;;;;;;;19.80;29.40;;;;;;5040176;28;20118;-43
2022/03/14 05:03:20;;;;;;;;;;;19.80;29.40;;;;;;5054955;28;19925;-43
2022/03/14 05:05:48;;;;;;;;;;;19.80;29.40;;;;;;5043338;28;20031;-45
2022/03/14 05:08:15;;;;;;;;;;;19.80;29.40;;;;;;5040309;28;19928;-48
2022/03/14 05:10:42;;;;;;;;;;;19.80;29.40;;;;;;5057142;28;19978;-44
2022/03/14 05:13:10;;;;;;;;;;;19.80;29.40;;;;;;5038040;28;20010;-46
2022/03/14 05:15:37;;;;;;;;;;;19.80;29.40;;;;;;5040819;28;19979;-47
2022/03/14 05:18:04;;;;;;;;;;;19.80;29.40;;;;;;5038706;28;19920;-43
2022/03/14 05:20:30;;;;;;;;;;;19.80;29.40;;;;;;5042680;28;19924;-43
2022/03/14 05:22:57;;;;;;;;;;;19.80;29.40;;;;;;5042624;28;19936;-47
2022/03/14 05:25:24;;;;;;;;;;;19.80;29.40;;;;;;5043534;28;19928;-43
2022/03/14 05:27:53;;;;;;;;;;;19.80;29.40;;;;;;5060210;28;19946;-45
2022/03/14 05:30:22;;;;;;;;;;;19.80;29.40;;;;;;5043467;28;20032;-46
2022/03/14 05:32:49;;;;;;;;;;;19.80;29.40;;;;;;5044150;28;19924;-45
2022/03/14 05:35:16;;;;;;;;;;;19.80;29.40;;;;;;5061273;28;19958;-48
2022/03/14 05:37:43;;;;;;;;;;;19.80;29.40;;;;;;5040389;28;19959;-43
2022/03/14 05:40:10;;;;;;;;;;;19.80;29.40;;;;;;5061321;28;20299;-44
2022/03/14 05:42:37;;;;;;;;;;;19.80;29.40;;;;;;5061576;28;20262;-43
2022/03/14 05:45:04;;;;;;;;;;;19.80;29.40;;;;;;5042701;28;19974;-43
2022/03/14 05:47:32;;;;;;;;;;;19.80;29.40;;;;;;5041840;28;20274;-44
2022/03/14 05:50:01;;;;;;;;;;;19.80;29.40;;;;;;5061213;28;19931;-44
2022/03/14 05:52:29;;;;;;;;;;;19.80;29.40;;;;;;5059044;28;20444;-45
2022/03/14 05:54:56;;;;;;;;;;;19.80;29.40;;;;;;5040257;28;19928;-44
2022/03/14 05:57:22;;;;;;;;;;;19.80;29.40;;;;;;5044796;28;19920;-42
2022/03/14 05:59:49;;;;;;;;;;;19.80;29.40;;;;;;5044674;28;19929;-47
2022/03/14 06:02:19;;;;;;;;;;;19.80;29.40;;;;;;5040781;28;20175;-46
2022/03/14 06:04:47;;;;;;;;;;;19.80;29.30;;;;;;5040455;28;19974;-44
2022/03/14 06:07:14;;;;;;;;;;;19.80;29.40;;;;;;5040946;28;19975;-47
2022/03/14 06:09:44;;;;;;;;;;;19.80;29.30;;;;;;5038135;28;19933;-47
2022/03/14 06:12:11;;;;;;;;;;;19.80;29.40;;;;;;5040843;28;19927;-48
2022/03/14 06:14:38;;;;;;;;;;;19.80;29.30;;;;;;5040498;28;20355;-44
2022/03/14 06:17:05;;;;;;;;;;;19.80;29.30;;;;;;5040894;28;19924;-45
2022/03/14 06:19:32;;;;;;;;;;;19.80;29.30;;;;;;5041536;28;19921;-43
2022/03/14 06:22:00;;;;;;;;;;;19.80;29.30;;;;;;5040459;28;19921;-43
2022/03/14 06:24:27;;;;;;;;;;;19.80;29.30;;;;;;5041009;28;20027;-47
2022/03/14 06:26:54;;;;;;;;;;;19.80;29.30;;;;;;5039391;28;20019;-43
2022/03/14 06:29:21;;;;;;;;;;;19.80;29.30;;;;;;5041004;28;20478;-44
2022/03/14 06:31:47;;;;;;;;;;;19.80;29.30;;;;;;5039647;28;20775;-44
2022/03/14 06:34:15;;;;;;;;;;;19.80;29.30;;;;;;5041040;28;19921;-45
2022/03/14 06:36:45;;;;;;;;;;;19.80;29.40;;;;;;5040673;28;19960;-46
2022/03/14 06:39:13;;;;;;;;;;;19.80;29.40;;;;;;5038917;28;20266;-44
2022/03/14 06:41:40;;;;;;;;;;;19.80;29.30;;;;;;5039651;28;19932;-45
2022/03/14 06:44:07;;;;;;;;;;;19.80;29.30;;;;;;5058898;28;19920;-44
2022/03/14 06:46:34;;;;;;;;;;;19.80;29.30;;;;;;5056086;28;19956;-46
2022/03/14 06:49:00;;;;;;;;;;;19.80;29.30;;;;;;5038132;28;20142;-45
2022/03/14 06:51:27;;;;;;;;;;;19.80;29.30;;;;;;5039343;28;19927;-46
2022/03/14 06:53:54;;;;;;;;;;;19.80;29.30;;;;;;5047171;28;20011;-43
2022/03/14 06:56:22;;;;;;;;;;;19.80;29.30;;;;;;5040878;28;20023;-43
2022/03/14 06:58:50;;;;;;;;;;;19.80;29.30;;;;;;5051050;28;19969;-45
2022/03/14 07:01:18;;;;;;;;;;;19.80;29.30;;;;;;5046407;28;19920;-45
2022/03/14 07:03:45;;;;;;;;;;;19.80;29.30;;;;;;5038295;28;19921;-43
2022/03/14 07:06:12;;;;;;;;;;;19.80;29.30;;;;;;5053788;28;19920;-43
2022/03/14 07:08:38;;;;;;;;;;;19.80;29.40;;;;;;5053268;28;19924;-46
2022/03/14 07:11:05;;;;;;;;;;;19.80;29.30;;;;;;5063338;28;19939;-43
2022/03/14 07:13:34;;;;;;;;;;;19.80;29.80;;;;;;5043889;28;19976;-43
2022/03/14 07:16:00;;;;;;;;;;;19.80;29.30;;;;;;5063505;28;19936;-44
2022/03/14 07:18:29;;;;;;;;;;;19.80;29.30;;;;;;5038118;28;19928;-43
2022/03/14 07:20:56;;;;;;;;;;;19.80;29.30;;;;;;5058787;28;19928;-43
2022/03/14 07:23:23;;;;;;;;;;;19.80;29.30;;;;;;5045084;28;19967;-45
2022/03/14 07:25:50;;;;;;;;;;;19.80;29.30;;;;;;5044913;28;20011;-48
2022/03/14 07:28:17;;;;;;;;;;;19.80;29.30;;;;;;5042376;28;19920;-44
2022/03/14 07:30:46;;;;;;;;;;;19.80;29.30;;;;;;5046759;28;19966;-48
2022/03/14 07:33:13;;;;;;;;;;;19.80;29.30;;;;;;5040867;28;20036;-43
2022/03/14 07:35:39;;;;;;;;;;;19.80;29.30;;;;;;5042653;28;19921;-56
2022/03/14 07:38:07;;;;;;;;;;;19.80;29.30;;;;;;5042163;28;19947;-54
2022/03/14 07:40:34;;;;;;;;;;;19.80;29.10;;;;;;5041106;28;20285;-51
2022/03/14 07:43:01;;;;;;;;;;;19.80;28.80;;;;;;5051577;28;20432;-50
2022/03/14 07:45:28;;;;;;;;;;;19.80;28.50;;;;;;5035064;28;19920;-53
2022/03/14 07:47:56;;;;;;;;;;;19.80;28.20;;;;;;5036642;28;19955;-54
2022/03/14 07:50:23;;;;;;;;;;;19.80;27.80;;;;;;5037930;28;19920;-53
2022/03/14 07:52:50;;;;;;;;;;;19.70;27.60;;;;;;5059823;28;19967;-45
2022/03/14 07:55:17;;;;;;;;;;;19.70;27.40;;;;;;5034340;28;20377;-44
2022/03/14 07:57:43;;;;;;;;;;;19.70;27.50;;;;;;5049261;28;19984;-45
2022/03/14 08:00:11;;;;;;;;;;;19.70;27.80;;;;;;5051793;28;19944;-46
2022/03/14 08:02:38;;;;;;;;;;;19.70;28.10;;;;;;5046721;28;19946;-44
2022/03/14 08:05:07;;;;;;;;;;;19.70;28.20;;;;;;5036420;28;19921;-45
2022/03/14 08:07:34;;;;;;;;;;;19.70;28.30;;;;;;5038014;28;19927;-43
2022/03/14 08:10:00;;;;;;;;;;;19.70;28.40;;;;;;5038091;28;19924;-45
2022/03/14 08:12:28;;;;;;;;;;;19.70;28.60;;;;;;5037116;28;19928;-43
2022/03/14 08:14:54;;;;;;;;;;;19.70;28.70;;;;;;5055303;28;20273;-46
2022/03/14 08:17:21;;;;;;;;;;;19.70;28.70;;;;;;5034580;28;20026;-44
2022/03/14 08:19:48;;;;;;;;;;;19.70;28.80;;;;;;5061155;28;20271;-43
2022/03/14 08:22:16;;;;;;;;;;;19.80;28.90;;;;;;5048202;28;20007;-43
2022/03/14 08:24:42;;;;;;;;;;;19.80;29.00;;;;;;5068921;28;19967;-48
2022/03/14 08:27:09;;;;;;;;;;;19.80;29.00;;;;;;5075707;28;19931;-46
2022/03/14 08:29:36;;;;;;;;;;;19.80;29.10;;;;;;5056165;28;19920;-46
2022/03/14 08:32:03;;;;;;;;;;;19.80;29.10;;;;;;5055845;28;20007;-44
2022/03/14 08:34:30;;;;;;;;;;;19.80;29.10;;;;;;5056199;28;20020;-50
2022/03/14 08:36:57;;;;;;;;;;;19.80;29.20;;;;;;5051710;28;20019;-49
2022/03/14 08:39:26;;;;;;;;;;;19.80;29.20;;;;;;5046767;28;19942;-44
2022/03/14 08:41:53;;;;;;;;;;;19.80;29.20;;;;;;5067698;28;20327;-44
2022/03/14 08:44:19;;;;;;;;;;;19.80;29.30;;;;;;5044265;28;20030;-45
2022/03/14 08:46:46;;;;;;;;;;;19.80;29.30;;;;;;5037019;28;19927;-45
2022/03/14 08:49:13;;;;;;;;;;;19.90;29.40;;;;;;5038041;28;19993;-45
2022/03/14 08:51:40;;;;;;;;;;;19.90;29.40;;;;;;5038778;28;19967;-45
2022/03/14 08:54:07;;;;;;;;;;;19.90;29.40;;;;;;5054318;28;20400;-44
2022/03/14 08:56:37;;;;;;;;;;;19.90;29.50;;;;;;5036755;28;19921;-47
2022/03/14 08:59:04;;;;;;;;;;;19.90;29.50;;;;;;5036188;28;20242;-44
2022/03/14 09:01:32;;;;;;;;;;;19.90;29.50;;;;;;5036040;28;20094;-45
2022/03/14 09:03:59;;;;;;;;;;;19.90;29.60;;;;;;5063619;28;19926;-45
2022/03/14 09:06:27;;;;;;;;;;;19.90;29.60;;;;;;5044599;28;19931;-44
2022/03/14 09:08:53;;;;;;;;;;;20.00;29.60;;;;;;5039997;28;19931;-45
2022/03/14 09:11:20;;;;;;;;;;;20.00;29.70;;;;;;5064047;28;19935;-43
2022/03/14 09:13:49;;;;;;;;;;;20.00;30.10;;;;;;5042165;28;19967;-45
2022/03/14 09:16:15;;;;;;;;;;;20.00;29.70;;;;;;5059663;28;19958;-43
2022/03/14 09:18:42;;;;;;;;;;;20.00;29.70;;;;;;5038838;28;20229;-43
2022/03/14 09:21:09;;;;;;;;;;;20.00;29.70;;;;;;5038465;28;20395;-44
2022/03/14 09:23:36;;;;;;;;;;;20.00;29.80;;;;;;5045377;28;20333;-43
2022/03/14 09:26:04;;;;;;;;;;;20.00;29.80;;;;;;5037262;28;20015;-43
2022/03/14 09:28:31;;;;;;;;;;;20.00;29.80;;;;;;5043541;28;20019;-44
2022/03/14 09:30:59;;;;;;;;;;;20.00;29.90;;;;;;5053752;28;19996;-42
2022/03/14 09:33:26;;;;;;;;;;;20.00;29.90;;;;;;5049340;28;19927;-44
2022/03/14 09:35:52;;;;;;;;;;;20.00;29.90;;;;;;5044152;28;19921;-43
2022/03/14 09:38:19;;;;;;;;;;;20.00;29.90;;;;;;5041699;28;19921;-43
2022/03/14 09:40:46;;;;;;;;;;;20.10;29.90;;;;;;5046310;28;20239;-42
2022/03/14 09:43:13;;;;;;;;;;;20.10;30.00;;;;;;5042726;28;20035;-44
2022/03/14 09:45:40;;;;;;;;;;;20.10;30.00;;;;;;5036460;28;20024;-43
2022/03/14 09:48:09;;;;;;;;;;;20.10;30.00;;;;;;5050909;28;19927;-43
2022/03/14 09:50:36;;;;;;;;;;;20.10;30.00;;;;;;5037479;28;20007;-48
2022/03/14 09:53:03;;;;;;;;;;;20.10;30.00;;;;;;5042799;28;20027;-45
2022/03/14 09:55:30;;;;;;;;;;;20.10;30.00;;;;;;5056499;28;19921;-44
2022/03/14 09:57:57;;;;;;;;;;;20.10;30.00;;;;;;5044032;28;19920;-43
2022/03/14 10:00:23;;;;;;;;;;;20.10;30.00;;;;;;5052465;28;19993;-43
2022/03/14 10:02:50;;;;;;;;;;;20.10;30.00;;;;;;5042205;28;20023;-46
2022/03/14 10:05:18;;;;;;;;;;;20.10;30.00;;;;;;5039850;28;19937;-44
2022/03/14 10:07:45;;;;;;;;;;;20.20;30.10;;;;;;5053101;28;19960;-50
2022/03/14 10:10:12;;;;;;;;;;;20.10;30.10;;;;;;5049158;28;19994;-46
2022/03/14 10:12:40;;;;;;;;;;;20.10;30.60;;;;;;5051904;28;19959;-43
2022/03/14 10:15:07;;;;;;;;;;;20.10;30.10;;;;;;5044633;28;20033;-47
2022/03/14 10:17:35;;;;;;;;;;;20.20;30.20;;;;;;5042088;28;19958;-43
2022/03/14 10:20:02;;;;;;;;;;;20.20;30.20;;;;;;5042963;28;20010;-45
2022/03/14 10:22:34;;;;;;;;;;;20.20;30.20;;;;;;5045038;28;19925;-45
2022/03/14 10:25:03;;;;;;;;;;;20.20;30.20;;;;;;5044442;28;19927;-44
2022/03/14 10:27:30;;;;;;;;;;;20.20;30.20;;;;;;5042676;28;19942;-44
2022/03/14 10:29:56;;;;;;;;;;;20.20;30.30;;;;;;5064368;28;19920;-47
2022/03/14 10:32:30;;;;;;;;;;;20.20;30.30;;;;;;5052485;28;19925;-43
2022/03/14 10:34:58;;;;;;;;;;;20.20;30.30;;;;;;5042587;28;19928;-46
2022/03/14 10:37:28;;;;;;;;;;;20.20;30.30;;;;;;5051927;28;19999;-48
2022/03/14 10:40:00;;;;;;;;;;;20.20;30.30;;;;;;5043520;28;19962;-43
2022/03/14 10:42:26;;;;;;;;;;;20.20;30.30;;;;;;5056661;28;19921;-46
2022/03/14 10:44:53;;;;;;;;;;;20.20;30.40;;;;;;5061457;28;19921;-46
2022/03/14 10:47:20;;;;;;;;;;;20.20;30.40;;;;;;5045380;28;19920;-45
2022/03/14 10:49:47;;;;;;;;;;;20.20;30.50;;;;;;5041999;28;19920;-48
2022/03/14 10:52:15;;;;;;;;;;;20.20;30.50;;;;;;5064097;28;20007;-43
2022/03/14 10:54:42;;;;;;;;;;;20.20;30.60;;;;;;5040085;28;19986;-44
2022/03/14 10:57:11;;;;;;;;;;;20.20;30.50;;;;;;5042456;28;20027;-45
2022/03/14 10:59:38;;;;;;;;;;;20.20;30.50;;;;;;5045761;28;19936;-47
2022/03/14 11:02:06;;;;;;;;;;;20.20;30.50;;;;;;5045792;28;20332;-46
2022/03/14 11:04:46;;;;;;;;;;;20.20;30.50;;;;;;5057243;28;19932;-46
2022/03/14 11:07:13;;;;;;;;;;;20.20;30.50;;;;;;5038463;28;20232;-46
2022/03/14 11:09:40;;;;;;;;;;;20.20;30.60;;;;;;5044121;28;19970;-44
2022/03/14 11:12:08;;;;;;;;;;;20.20;30.60;;;;;;5062778;28;19997;-44
2022/03/14 11:14:37;;;;;;;;;;;20.20;30.60;;;;;;5048545;28;19927;-44
2022/03/14 11:17:10;;;;;;;;;;;20.20;30.60;;;;;;5043910;28;20026;-45
2022/03/14 11:19:37;;;;;;;;;;;20.20;30.60;;;;;;5046648;28;19920;-43
2022/03/14 11:22:04;;;;;;;;;;;20.30;30.70;;;;;;5038544;28;19978;-49
2022/03/14 11:24:30;;;;;;;;;;;20.20;30.60;;;;;;5066900;28;19985;-44
2022/03/14 11:26:57;;;;;;;;;;;20.20;30.60;;;;;;5045407;28;19970;-45
2022/03/14 11:29:24;;;;;;;;;;;20.20;30.60;;;;;;5039872;28;19920;-43
2022/03/14 11:31:52;;;;;;;;;;;20.20;30.60;;;;;;5041626;28;20195;-43
2022/03/14 11:34:19;;;;;;;;;;;20.30;30.70;;;;;;5044350;28;19927;-45
2022/03/14 11:36:45;;;;;;;;;;;20.20;30.60;;;;;;5056267;28;20281;-47
2022/03/14 11:39:12;;;;;;;;;;;20.20;30.70;;;;;;5045811;28;20011;-48
2022/03/14 11:41:39;;;;;;;;;;;20.20;30.70;;;;;;5064211;28;19921;-44
2022/03/14 11:44:08;;;;;;;;;;;20.20;30.70;;;;;;5048310;28;19921;-45
2022/03/14 11:46:35;;;;;;;;;;;20.20;30.70;;;;;;5042910;28;19920;-45
2022/03/14 11:49:14;;;;;;;;;;;20.20;30.70;;;;;;5040415;28;19924;-47
2022/03/14 11:51:42;;;;;;;;;;;20.20;30.70;;;;;;5042535;28;19993;-50
2022/03/14 11:54:09;;;;;;;;;;;20.20;30.70;;;;;;5058154;28;19920;-42
2022/03/14 11:56:38;;;;;;;;;;;20.20;30.70;;;;;;5044196;28;20341;-45
2022/03/14 11:59:08;;;;;;;;;;;20.20;30.70;;;;;;5046607;28;19921;-46
2022/03/14 12:01:35;;;;;;;;;;;20.20;30.70;;;;;;5041793;28;19989;-45
2022/03/14 12:04:02;;;;;;;;;;;20.20;30.80;;;;;;5062194;28;19935;-44
2022/03/14 12:06:55;;;;;;;;;;;20.20;31.40;;;;;;5044691;28;19921;-46
2022/03/14 12:09:38;;;;;;;;;;;20.20;30.80;;;;;;5045656;28;19981;-45
2022/03/14 12:12:25;;;;;;;;;;;20.20;30.80;;;;;;5049526;28;19921;-47
2022/03/14 12:14:56;;;;;;;;;;;20.20;30.80;;;;;;5056446;28;20020;-43
2022/03/14 12:17:24;;;;;;;;;;;20.20;30.80;;;;;;5062531;28;19927;-43
2022/03/14 12:19:51;;;;;;;;;;;20.20;30.90;;;;;;5041457;28;19951;-42
2022/03/14 12:22:33;;;;;;;;;;;20.20;30.90;;;;;;5067998;28;19920;-44
2022/03/14 12:25:00;;;;;;;;;;;20.20;30.90;;;;;;5048769;28;19925;-45
2022/03/14 12:27:30;;;;;;;;;;;20.20;31.00;;;;;;5035469;28;20015;-44
2022/03/14 12:29:56;;;;;;;;;;;20.20;31.00;;;;;;5038837;28;19920;-43
2022/03/14 12:32:24;;;;;;;;;;;20.20;31.00;;;;;;5037148;28;19959;-44
2022/03/14 12:34:56;;;;;;;;;;;20.20;31.00;;;;;;5039890;28;19925;-42
2022/03/14 12:37:26;;;;;;;;;;;20.20;31.00;;;;;;5044235;28;20375;-43
2022/03/14 12:39:53;;;;;;;;;;;20.30;31.10;;;;;;5036508;28;19924;-47
2022/03/14 12:42:23;;;;;;;;;;;20.30;31.10;;;;;;5057019;28;19921;-43
2022/03/14 12:45:17;;;;;;;;;;;20.30;31.10;;;;;;5056526;28;19920;-44
2022/03/14 12:47:50;;;;;;;;;;;20.30;31.10;;;;;;5010268;28;19924;-45
2022/03/14 12:50:32;;;;;;;;;;;20.30;31.10;;;;;;5048951;28;19927;-45
2022/03/14 12:52:59;;;;;;;;;;;20.30;31.10;;;;;;5043774;28;19981;-45
2022/03/14 12:55:26;;;;;;;;;;;20.30;31.10;;;;;;5048031;28;19921;-46
2022/03/14 12:57:53;;;;;;;;;;;20.30;31.10;;;;;;5041198;28;20264;-42
2022/03/14 13:00:20;;;;;;;;;;;20.30;31.20;;;;;;5041802;28;20000;-45
2022/03/14 13:02:47;;;;;;;;;;;20.30;31.20;;;;;;5042199;28;19920;-43
2022/03/14 13:05:18;;;;;;;;;;;20.30;31.20;;;;;;5045348;28;19947;-43
2022/03/14 13:07:45;;;;;;;;;;;20.30;31.20;;;;;;5061433;28;19924;-45
2022/03/14 13:10:12;;;;;;;;;;;20.30;31.20;;;;;;5043004;28;20022;-46
2022/03/14 13:12:39;;;;;;;;;;;20.30;31.30;;;;;;5048589;28;19921;-43
2022/03/14 13:15:06;;;;;;;;;;;20.30;31.30;;;;;;5056175;28;20544;-44
2022/03/14 13:17:32;;;;;;;;;;;20.30;31.30;;;;;;5041416;28;19920;-43
2022/03/14 13:19:59;;;;;;;;;;;20.30;31.30;;;;;;5042618;28;19935;-45
2022/03/14 13:22:27;;;;;;;;;;;20.30;31.90;;;;;;5058317;28;20249;-46
2022/03/14 13:24:54;;;;;;;;;;;20.30;31.40;;;;;;5044052;28;20342;-42
2022/03/14 13:27:21;;;;;;;;;;;20.30;31.40;;;;;;5048930;28;19943;-42
2022/03/14 13:29:47;;;;;;;;;;;20.30;31.40;;;;;;5048436;28;19920;-43
2022/03/14 13:32:15;;;;;;;;;;;20.30;31.40;;;;;;5052303;28;19986;-43
2022/03/14 13:34:42;;;;;;;;;;;20.30;31.40;;;;;;5052499;28;20014;-44
2022/03/14 13:37:10;;;;;;;;;;;20.30;31.40;;;;;;5050567;28;19939;-44
2022/03/14 13:39:41;;;;;;;;;;;20.30;31.40;;;;;;5055458;28;19927;-43
2022/03/14 13:42:07;;;;;;;;;;;20.30;31.40;;;;;;5047384;28;19999;-47
2022/03/14 13:44:34;;;;;;;;;;;20.30;31.40;;;;;;5051817;28;20388;-42
2022/03/14 13:47:02;;;;;;;;;;;20.40;31.50;;;;;;5064984;28;20220;-43
2022/03/14 13:49:29;;;;;;;;;;;20.30;31.50;;;;;;5065938;28;19932;-45
2022/03/14 13:51:56;;;;;;;;;;;20.40;31.60;;;;;;5057685;28;19955;-44
2022/03/14 13:54:24;;;;;;;;;;;20.30;31.50;;;;;;5061329;28;19960;-45
2022/03/14 13:56:52;;;;;;;;;;;20.30;31.50;;;;;;5052489;28;19921;-43
2022/03/14 13:59:27;;;;;;;;;;;20.30;31.50;;;;;;5049485;28;19920;-43
2022/03/14 14:01:54;;;;;;;;;;;20.30;31.50;;;;;;5065131;28;19943;-43
2022/03/14 14:04:24;;;;;;;;;;;20.40;31.60;;;;;;5045089;28;20163;-44
2022/03/14 14:06:51;;;;;;;;;;;20.40;31.60;;;;;;5053009;28;20327;-43
2022/03/14 14:09:19;;;;;;;;;;;20.40;31.60;;;;;;5046499;28;19920;-44
2022/03/14 14:11:57;;;;;;;;;;;20.40;31.60;;;;;;5063689;28;19924;-43
2022/03/14 14:14:25;;;;;;;;;;;20.40;31.70;;;;;;5045687;28;19974;-44
2022/03/14 14:16:51;;;;;;;;;;;20.40;31.60;;;;;;5065788;28;20027;-43
2022/03/14 14:19:22;;;;;;;;;;;20.40;31.70;;;;;;5049967;28;19920;-44